Terminal Aerodrome Forecast
Issued by NWS

Home | Current Version | Previous Version | Text Only | Print | Product List | Glossary On
Versions: 1 2 3 4 5 6 7 8 9 10 11 12 13 14
000
FTUS44 KLIX 230500
TAFMSY
TAF
KMSY 230521Z 2306/2406 24004KT P6SM SKC
     FM231500 35005KT P6SM SCT045
     FM232300 16005KT P6SM SCT045
     FM240200 21004KT P6SM SKC=

USA.gov is the U.S. government's official web portal to all federal, state and local government web resources and services.